This is the latest recevied weather packets stored in our database for station/object IZ1RFL-3. If no packets are shown the sender has not sent any weather packets the latest 10 day(s).
| Time | Temp. | Humidity | Pressure | Rain* | Wind** | Luminosity | Snow |
|---|---|---|---|---|---|---|---|
| 1777456860 | 20° C | 54% | 1018.8 hPa | - | - | - | - |
| 1777455961 | 21.67° C | 51% | 1018.7 hPa | - | - | - | - |
| 1777455060 | 19.44° C | 57% | 1018.8 hPa | - | - | - | - |
| 1777454161 | 18.89° C | 57% | 1018.8 hPa | - | - | - | - |
| 1777453260 | 19.44° C | 57% | 1018.6 hPa | - | - | - | - |
| 1777452360 | 20° C | 54% | 1018.5 hPa | - | - | - | - |
| 1777451462 | 19.44° C | 56% | 1018.4 hPa | - | - | - | - |
| 1777450560 | 18.89° C | 58% | 1018.6 hPa | - | - | - | - |
| 1777449660 | 19.44° C | 57% | 1018.4 hPa | - | - | - | - |
| 1777448760 | 20.56° C | 54% | 1018.4 hPa | - | - | - | - |
| 1777447860 | 19.44° C | 59% | 1018.4 hPa | - | - | - | - |
| 1777446960 | 19.44° C | 57% | 1018.4 hPa | - | - | - | - |
| 1777446059 | 17.22° C | 65% | 1018.2 hPa | - | - | - | - |
| 1777445159 | 16.67° C | 72% | 1018.1 hPa | - | - | - | - |
| 1777444259 | 16.11° C | 73% | 1018 hPa | - | - | - | - |
| 1777443359 | 16.11° C | 74% | 1017.8 hPa | - | - | - | - |
| 1777442459 | 15.56° C | 74% | 1017.8 hPa | - | - | - | - |
| 1777441559 | 15.56° C | 74% | 1017.7 hPa | - | - | - | - |
| 1777440659 | 15° C | 75% | 1017.6 hPa | - | - | - | - |
| 1777439759 | 14.44° C | 77% | 1017.5 hPa | - | - | - | - |
| 1777438859 | 15° C | 75% | 1017.4 hPa | - | - | - | - |
| 1777437959 | 15° C | 74% | 1017.2 hPa | - | - | - | - |
| 1777437059 | 15° C | 76% | 1017.2 hPa | - | - | - | - |
| 1777436159 | 14.44° C | 79% | 1017.2 hPa | - | - | - | - |
| 1777435259 | 14.44° C | 77% | 1017.2 hPa | - | - | - | - |
* Rain since midnight (hover to see other rain measurements)
** Current wind speed in m/s (hover to see current wind gust speed)